Portada
METAR-TAF:

METAR-TAF

Aeroports :

Rodés, França

latitud: 44-24N, longitud: 002-29E, altitud: 581 m

Observació

L'informe es va fer fa 42 minuts, a les 14:30 UTC
Vent 6 kt del Oest, variant entre Sud-Oest i Oest/Nord-Oest
Temperatura 25°C
Humitat 30%
Pressió 1018 hPa
Visibilitat 10 km o més
sense núvols per sota de 1500 mi sense presència de cumulonimbus.

METAR: LFCR 161430Z AUTO 26006KT 220V300 CAVOK 25/06 Q1018 NOSIG

Hora: 17:12 (15:12 UTC)

Pronòstic

L'informe es va fer fa 4 hores i 12 minuts, a les 11:00 UTC
Pronòstic vàlid del 16 a les 12 UTC al 17 a les 12 UTC
Vent 8 kt del Nord-Oest
Visibilitat 10 km o més
sense núvols per sota de 1500 mi sense presència de cumulonimbus.
Evolucionant progressivament
l' 16 a les 21 UTC al 16 a les 23 UTC
Vent 2 kt amb direcció variable
Evolucionant progressivament
l' 17 a les 08 UTC al 17 a les 10 UTC
Vent 8 kt del Oest/Nord-Oest

TAF: LFCR 161100Z 1612/1712 32008KT CAVOK BECMG 1621/1623 VRB02KT BECMG 1708/1710 30008KT

Observacions i pronòstics meteorològics de més de 4000 aeroports (METAR i TAF).

Les estacions disponibles són els punts grocs i vermells al mapa.

Posi el ratolí al punt desitjat per veure el nom de l'estació.

Feu clic per veure les observacions i els pronòstics meteorològics.

Per canviar el mapa: feu clic els botons verds amb una creu de color negre per apropar; al botó verd amb un guió per allunyar la imatge; o en les fletxes verdes per a mapes adjacents.


METAR-TAF: